Time;durP1;ratioP1;P1;durP2;ratioP2;P2;SDS_P1;SDS_P2;PMS_P1;PMS_P2;Temp;Humidity;BMP_temperature;BMP_pressure;BME280_temperature;BME280_humidity;BME280_pressure;Samples;Min_cycle;Max_cycle;Signal;HPM_P1;HPM_P2
2022/09/17 00:01:13;;;;;;;4.78;2.17;;;;;;;7.78;81.42;93541.78;5012581;28;20050;-66
2022/09/17 00:03:39;;;;;;;3.90;2.10;;;;;;;7.71;82.18;93541.88;5013316;28;20054;-65
2022/09/17 00:06:09;;;;;;;4.53;2.10;;;;;;;7.68;81.51;93525.53;5012540;28;20038;-72
2022/09/17 00:08:38;;;;;;;3.78;2.10;;;;;;;7.62;82.12;93511.53;5013291;28;20052;-65
2022/09/17 00:11:20;;;;;;;4.03;2.20;;;;;;;7.42;82.62;93526.97;5012701;28;20049;-65
2022/09/17 00:13:48;;;;;;;3.88;2.15;;;;;;;7.46;82.93;93519.50;5013268;28;20052;-68
2022/09/17 00:16:26;;;;;;;3.90;2.20;;;;;;;7.49;82.70;93519.50;5012119;28;20053;-65
2022/09/17 00:18:54;;;;;;;5.25;2.15;;;;;;;7.49;83.03;93522.22;5011927;28;20556;-68
2022/09/17 00:21:21;;;;;;;6.72;2.10;;;;;;;7.39;82.34;93521.13;5012045;28;20060;-65
2022/09/17 00:23:51;;;;;;;3.80;1.90;;;;;;;7.42;82.50;93518.78;5012119;28;20038;-65
2022/09/17 00:26:18;;;;;;;3.10;1.80;;;;;;;7.67;81.44;93522.03;5012127;28;20411;-65
2022/09/17 00:28:49;;;;;;;2.90;1.67;;;;;;;7.63;81.42;93526.75;5011719;28;20050;-65
2022/09/17 00:31:15;;;;;;;4.68;1.98;;;;;;;7.65;82.00;93534.56;5012212;28;20107;-68
2022/09/17 00:33:42;;;;;;;3.40;1.73;;;;;;;7.67;81.40;93524.78;5012658;28;20100;-65
2022/09/17 00:36:08;;;;;;;4.47;1.70;;;;;;;7.72;80.02;93531.72;5011859;28;20511;-70
2022/09/17 00:38:35;;;;;;;3.13;1.92;;;;;;;7.76;80.47;93533.22;5012537;28;20040;-65
2022/09/17 00:41:03;;;;;;;3.30;1.65;;;;;;;7.73;80.47;93530.56;5012113;28;20042;-67
2022/09/17 00:43:48;;;;;;;3.13;1.52;;;;;;;7.79;79.41;93532.44;5011908;28;20402;-68
2022/09/17 00:46:21;;;;;;;3.05;1.65;;;;;;;7.88;79.87;93531.94;5011460;28;20465;-65
2022/09/17 00:48:49;;;;;;;3.40;1.50;;;;;;;7.95;79.20;93533.84;5012586;28;20410;-65
2022/09/17 00:51:21;;;;;;;5.18;1.60;;;;;;;7.92;79.37;93526.44;5011491;28;20111;-65
2022/09/17 00:53:48;;;;;;;3.58;1.80;;;;;;;8.10;78.76;93531.69;5012578;28;20663;-68
2022/09/17 00:56:31;;;;;;;2.90;1.80;;;;;;;7.95;79.72;93531.88;5011630;28;20406;-65
2022/09/17 00:59:00;;;;;;;2.97;1.70;;;;;;;8.06;79.42;93528.25;5012538;28;20398;-66
2022/09/17 01:01:27;;;;;;;5.10;2.00;;;;;;;7.93;80.22;93528.78;5010957;28;21683;-66
2022/09/17 01:03:54;;;;;;;3.65;1.80;;;;;;;8.03;80.31;93529.03;5011890;28;20442;-65
2022/09/17 01:06:23;;;;;;;3.72;1.90;;;;;;;8.00;80.06;93538.84;5011370;28;20393;-67
2022/09/17 01:09:07;;;;;;;3.20;1.70;;;;;;;7.93;80.30;93528.78;5011913;28;20042;-68
2022/09/17 01:11:50;;;;;;;3.67;1.80;;;;;;;7.95;80.05;93533.84;5009627;28;20419;-68
2022/09/17 01:14:44;;;;;;;5.13;2.00;;;;;;;8.00;80.70;93536.09;5011071;28;20433;-66
2022/09/17 01:17:27;;;;;;;3.97;1.92;;;;;;;7.90;80.85;93529.56;5010990;28;20044;-66
2022/09/17 01:20:20;;;;;;;5.43;2.08;;;;;;;7.71;82.06;93532.94;5010293;28;20052;-65
2022/09/17 01:23:13;;;;;;;3.33;1.90;;;;;;;7.72;81.39;93546.16;5003379;28;20115;-65
2022/09/17 01:25:56;;;;;;;4.15;2.10;;;;;;;7.88;80.52;93551.06;5008717;28;20232;-66
2022/09/17 01:28:44;;;;;;;3.90;1.80;;;;;;;7.91;80.73;93553.00;5010955;28;20048;-65
2022/09/17 01:31:34;;;;;;;4.05;1.70;;;;;;;7.93;80.13;93561.56;4999101;28;20038;-65
2022/09/17 01:34:13;;;;;;;3.63;1.80;;;;;;;7.88;80.80;93556.53;5011278;28;20107;-66
2022/09/17 01:36:58;;;;;;;4.13;1.77;;;;;;;7.82;81.24;93558.16;5010409;28;20709;-65
2022/09/17 01:39:47;;;;;;;5.25;2.00;;;;;;;7.92;79.92;93564.69;5011019;28;20038;-66
2022/09/17 01:42:20;;;;;;;3.60;2.00;;;;;;;7.89;80.25;93562.78;5010866;28;20487;-66
2022/09/17 01:44:51;;;;;;;3.60;1.67;;;;;;;7.88;80.34;93561.22;5010847;28;20045;-65
2022/09/17 01:47:26;;;;;;;3.05;1.77;;;;;;;7.73;81.81;93560.59;5010566;28;20148;-65
2022/09/17 01:50:01;;;;;;;4.05;1.65;;;;;;;7.87;81.03;93563.19;5011363;28;20123;-65
2022/09/17 01:52:33;;;;;;;4.80;2.65;;;;;;;7.77;80.77;93566.81;5009795;28;20819;-65
2022/09/17 01:55:07;;;;;;;4.40;1.70;;;;;;;7.75;81.27;93569.19;5011241;28;20042;-65
2022/09/17 01:57:41;;;;;;;3.65;1.58;;;;;;;7.69;81.03;93568.84;5010243;28;20794;-65
2022/09/17 02:00:12;;;;;;;3.85;1.80;;;;;;;7.61;80.87;93578.28;5010660;28;20046;-65
2022/09/17 02:02:58;;;;;;;4.30;2.00;;;;;;;7.57;81.42;93572.06;5011113;28;20391;-65
2022/09/17 02:05:35;;;;;;;3.60;1.98;;;;;;;7.66;80.98;93574.31;4996892;28;20050;-65
2022/09/17 02:08:07;;;;;;;3.87;1.90;;;;;;;7.63;81.13;93566.97;5010627;28;20458;-63
2022/09/17 02:10:39;;;;;;;3.67;1.63;;;;;;;7.45;81.31;93570.63;5010874;28;20126;-70
2022/09/17 02:13:15;;;;;;;3.60;2.10;;;;;;;7.54;81.58;93572.88;5010684;28;20042;-64
2022/09/17 02:15:48;;;;;;;4.18;2.03;;;;;;;7.18;81.79;93573.97;5010705;28;20050;-65
2022/09/17 02:18:39;;;;;;;3.75;1.80;;;;;;;7.57;81.07;93575.56;5010254;28;20041;-66
2022/09/17 02:21:52;;;;;;;3.43;1.70;;;;;;;7.58;81.01;93576.34;5008669;28;20423;-65
2022/09/17 02:24:23;;;;;;;4.53;1.90;;;;;;;7.73;80.94;93577.78;5000487;28;20083;-65
2022/09/17 02:27:08;;;;;;;3.67;1.88;;;;;;;7.88;79.52;93583.09;5010666;28;20049;-65
2022/09/17 02:29:41;;;;;;;4.05;2.17;;;;;;;7.33;80.69;93576.59;5009425;28;20052;-66
2022/09/17 02:32:09;;;;;;;3.25;1.80;;;;;;;7.50;81.09;93589.28;5010087;28;20046;-65
2022/09/17 02:34:38;;;;;;;3.93;1.80;;;;;;;7.29;81.57;93594.94;5010162;28;20083;-64
2022/09/17 02:37:06;;;;;;;4.78;2.45;;;;;;;6.83;84.21;93599.53;5010157;28;20398;-64
2022/09/17 02:39:33;;;;;;;4.80;2.33;;;;;;;7.10;83.38;93602.50;5010067;28;20045;-65
2022/09/17 02:42:19;;;;;;;3.30;2.15;;;;;;;6.91;85.14;93587.41;5010373;28;20064;-64
2022/09/17 02:44:49;;;;;;;4.57;2.10;;;;;;;7.31;84.07;93587.13;5009134;28;20045;-66
2022/09/17 02:47:33;;;;;;;4.30;2.57;;;;;;;7.30;83.73;93591.78;5009344;28;20087;-70
2022/09/17 02:50:25;;;;;;;4.60;2.10;;;;;;;7.50;81.48;93586.56;5010324;28;20046;-66
2022/09/17 02:52:57;;;;;;;4.03;1.80;;;;;;;7.54;81.55;93581.84;5009439;28;20656;-65
2022/09/17 02:55:46;;;;;;;5.05;2.20;;;;;;;7.62;81.54;93579.03;5009468;28;20048;-68
2022/09/17 02:58:15;;;;;;;4.03;2.13;;;;;;;7.50;81.13;93577.59;5009658;28;20686;-67
2022/09/17 03:00:43;;;;;;;4.73;1.83;;;;;;;7.65;81.12;93579.03;5010416;28;20069;-68
2022/09/17 03:03:20;;;;;;;3.30;1.90;;;;;;;7.52;81.11;93575.22;5009791;28;20053;-68
2022/09/17 03:05:47;;;;;;;3.63;2.30;;;;;;;7.55;81.05;93583.41;5010216;28;20457;-68
2022/09/17 03:08:17;;;;;;;4.50;2.10;;;;;;;7.52;81.20;93578.72;5009863;28;20046;-66
2022/09/17 03:10:44;;;;;;;4.78;2.05;;;;;;;7.61;80.11;93578.28;5010198;28;20395;-66
2022/09/17 03:13:10;;;;;;;3.33;1.90;;;;;;;7.72;79.71;93573.47;5009396;28;20054;-68
2022/09/17 03:15:37;;;;;;;3.88;2.00;;;;;;;7.34;81.76;93578.13;5008159;28;20790;-66
2022/09/17 03:18:04;;;;;;;3.42;2.03;;;;;;;7.49;80.79;93582.28;5009705;28;20046;-63
2022/09/17 03:20:30;;;;;;;3.00;1.90;;;;;;;7.32;81.22;93577.75;5008208;28;20042;-65
2022/09/17 03:22:57;;;;;;;3.75;2.40;;;;;;;7.31;82.20;93574.25;5010442;28;20042;-69
2022/09/17 03:25:24;;;;;;;4.97;2.13;;;;;;;7.34;81.99;93580.84;5009765;28;20042;-66
2022/09/17 03:27:51;;;;;;;4.32;2.10;;;;;;;7.48;81.56;93579.94;5009971;28;20453;-67
2022/09/17 03:30:18;;;;;;;3.78;2.28;;;;;;;7.42;81.59;93573.38;5009337;28;20058;-65
2022/09/17 03:32:45;;;;;;;4.47;2.10;;;;;;;7.28;82.37;93577.78;5009991;28;20038;-66
2022/09/17 03:35:12;;;;;;;3.63;2.28;;;;;;;7.39;81.23;93577.69;5002375;28;20450;-66
2022/09/17 03:37:39;;;;;;;4.10;2.17;;;;;;;7.49;82.43;93576.06;5009509;28;20056;-69
2022/09/17 03:40:06;;;;;;;3.50;2.17;;;;;;;7.34;82.89;93575.38;5009663;28;20484;-66
2022/09/17 03:42:33;;;;;;;6.55;2.30;;;;;;;7.43;81.94;93581.16;5009650;28;20049;-65
2022/09/17 03:44:59;;;;;;;57.35;17.27;;;;;;;7.54;82.18;93584.56;5008436;28;20058;-65
2022/09/17 03:47:26;;;;;;;8.13;3.88;;;;;;;7.31;83.47;93584.41;5009270;28;20046;-66
2022/09/17 03:49:53;;;;;;;5.07;2.77;;;;;;;7.26;84.40;93590.28;5009637;28;20042;-67
2022/09/17 03:52:19;;;;;;;4.88;2.35;;;;;;;7.19;82.98;93602.78;5009305;28;20038;-73
2022/09/17 03:54:47;;;;;;;5.78;2.30;;;;;;;6.95;84.52;93593.63;5009897;28;20046;-66
2022/09/17 03:57:14;;;;;;;3.70;2.30;;;;;;;7.00;84.15;93592.41;5009230;28;20127;-65
2022/09/17 03:59:40;;;;;;;4.38;2.28;;;;;;;7.24;83.79;93601.59;5010462;28;20056;-65
2022/09/17 04:02:07;;;;;;;3.77;2.00;;;;;;;7.35;82.55;93606.97;5012845;28;20499;-64
2022/09/17 04:04:35;;;;;;;3.97;1.90;;;;;;;7.23;83.96;93610.97;5011675;28;20042;-66
2022/09/17 04:07:01;;;;;;;6.78;3.40;;;;;;;7.13;83.41;93609.88;5012981;28;20054;-66
2022/09/17 04:09:28;;;;;;;3.88;1.90;;;;;;;7.13;83.17;93611.81;5010710;28;21698;-66
2022/09/17 04:11:55;;;;;;;5.10;2.00;;;;;;;7.00;83.78;93612.31;5013292;28;20041;-65
2022/09/17 04:14:22;;;;;;;4.03;1.63;;;;;;;7.00;84.00;93611.50;5012535;28;20058;-65
2022/09/17 04:16:49;;;;;;;3.30;1.50;;;;;;;7.12;84.02;93604.78;5013160;28;20046;-66
2022/09/17 04:19:15;;;;;;;2.97;1.70;;;;;;;7.24;82.73;93615.22;5012586;28;20430;-67
2022/09/17 04:21:42;;;;;;;3.72;1.75;;;;;;;7.34;82.78;93608.16;5011409;28;20042;-66
2022/09/17 04:24:08;;;;;;;3.40;1.90;;;;;;;7.08;84.47;93612.22;5012861;28;20034;-66
2022/09/17 04:26:35;;;;;;;3.93;1.63;;;;;;;6.95;85.15;93611.94;5012692;28;20482;-64
2022/09/17 04:29:02;;;;;;;2.75;1.55;;;;;;;7.07;83.38;93610.69;5012197;28;20483;-62
2022/09/17 04:31:29;;;;;;;3.63;1.60;;;;;;;7.15;83.85;93612.97;5012543;28;20037;-65
2022/09/17 04:33:55;;;;;;;2.83;1.40;;;;;;;7.19;83.50;93608.25;5012523;28;20048;-68
2022/09/17 04:36:22;;;;;;;2.63;1.42;;;;;;;7.21;82.91;93610.59;5010802;28;20107;-68
2022/09/17 04:38:49;;;;;;;2.33;1.20;;;;;;;7.12;83.07;93613.78;5012515;28;20056;-64
2022/09/17 04:41:15;;;;;;;4.13;2.20;;;;;;;7.14;83.63;93610.63;5012210;28;20060;-64
2022/09/17 04:43:42;;;;;;;3.60;1.60;;;;;;;6.80;83.67;93617.50;5012013;28;20195;-68
2022/09/17 04:46:09;;;;;;;2.33;1.10;;;;;;;6.76;85.11;93611.28;5011772;28;20057;-66
2022/09/17 04:48:36;;;;;;;2.60;1.33;;;;;;;6.98;83.22;93616.59;5012350;28;20548;-65
2022/09/17 04:51:03;;;;;;;2.87;1.40;;;;;;;6.97;83.18;93615.03;5011828;28;20141;-66
2022/09/17 04:53:29;;;;;;;3.40;1.40;;;;;;;6.73;84.63;93611.28;5012182;28;20042;-65
2022/09/17 04:55:56;;;;;;;3.00;1.45;;;;;;;7.00;84.52;93622.41;5027376;28;20057;-65
2022/09/17 04:58:22;;;;;;;3.15;1.60;;;;;;;6.90;84.61;93623.25;5011819;28;20049;-65
2022/09/17 05:00:49;;;;;;;3.05;1.58;;;;;;;6.97;83.70;93636.88;5012143;28;20038;-67
2022/09/17 05:03:16;;;;;;;2.87;1.50;;;;;;;6.69;84.55;93641.31;5005350;28;20411;-65
2022/09/17 05:05:43;;;;;;;2.50;1.30;;;;;;;6.80;85.54;93633.06;5003516;28;20050;-64
2022/09/17 05:08:10;;;;;;;2.55;1.33;;;;;;;6.87;84.53;93645.91;5010100;28;20046;-64
2022/09/17 05:10:37;;;;;;;3.70;1.50;;;;;;;6.84;83.96;93642.03;5011240;28;20046;-69
2022/09/17 05:13:03;;;;;;;3.22;1.63;;;;;;;6.51;85.22;93646.06;5011661;28;20038;-65
2022/09/17 05:15:30;;;;;;;2.80;1.60;;;;;;;6.87;85.34;93645.91;5011469;28;20046;-65
2022/09/17 05:17:57;;;;;;;4.85;1.70;;;;;;;7.00;83.68;93644.25;5011707;28;20044;-65
2022/09/17 05:20:23;;;;;;;3.55;1.70;;;;;;;6.87;85.09;93645.91;5011150;28;20053;-66
2022/09/17 05:22:51;;;;;;;3.47;1.77;;;;;;;6.85;84.99;93654.47;5011788;28;20049;-67
2022/09/17 05:25:23;;;;;;;3.13;1.83;;;;;;;6.52;87.69;93642.16;5011287;28;20423;-68
2022/09/17 05:27:52;;;;;;;3.30;1.60;;;;;;;6.62;86.60;93643.28;5011560;28;20487;-65
2022/09/17 05:30:19;;;;;;;3.75;1.77;;;;;;;6.59;85.63;93640.16;5010165;28;20049;-65
2022/09/17 05:32:46;;;;;;;7.47;2.10;;;;;;;6.74;84.74;93649.06;5011527;28;20045;-64
2022/09/17 05:35:13;;;;;;;4.13;1.83;;;;;;;7.12;84.01;93653.91;5010780;28;20049;-65
2022/09/17 05:37:40;;;;;;;3.67;2.28;;;;;;;7.14;83.17;93649.63;5011072;28;20038;-68
2022/09/17 05:40:08;;;;;;;4.80;2.20;;;;;;;7.18;83.54;93655.84;5011013;28;20060;-65
2022/09/17 05:42:35;;;;;;;4.90;1.90;;;;;;;7.12;83.40;93662.91;5009861;28;20045;-64
2022/09/17 05:45:01;;;;;;;5.85;1.90;;;;;;;7.36;82.05;93665.84;5009623;28;20070;-66
2022/09/17 05:47:28;;;;;;;3.20;1.70;;;;;;;7.20;82.09;93669.06;5010097;28;20854;-64
2022/09/17 05:49:55;;;;;;;4.80;2.00;;;;;;;7.37;82.14;93670.91;5011294;28;20505;-65
2022/09/17 05:52:21;;;;;;;3.83;1.67;;;;;;;7.55;81.11;93675.47;5009451;28;20515;-64
2022/09/17 05:54:48;;;;;;;7.30;1.70;;;;;;;7.33;82.06;93677.56;5010524;28;20053;-67
2022/09/17 05:57:15;;;;;;;3.97;1.83;;;;;;;7.58;81.62;93685.56;5010665;28;20414;-65
2022/09/17 05:59:41;;;;;;;3.85;1.88;;;;;;;8.22;79.40;93678.00;5011073;28;20038;-64
2022/09/17 06:02:12;;;;;;;3.38;1.52;;;;;;;7.48;81.09;93681.75;5010074;28;20060;-64
2022/09/17 06:04:39;;;;;;;3.53;1.77;;;;;;;7.98;79.46;93678.59;5010834;28;20041;-65
2022/09/17 06:07:08;;;;;;;4.68;1.73;;;;;;;7.75;79.64;93687.41;5009311;28;20088;-65
2022/09/17 06:09:36;;;;;;;10.95;4.28;;;;;;;8.05;79.34;93679.72;5010621;28;20042;-65
2022/09/17 06:12:04;;;;;;;9.18;2.60;;;;;;;8.02;78.83;93681.31;5010403;28;20067;-64
2022/09/17 06:14:31;;;;;;;4.88;1.90;;;;;;;8.02;79.27;93684.03;5010348;28;20042;-66
2022/09/17 06:16:57;;;;;;;3.67;1.93;;;;;;;8.08;79.30;93687.13;5010535;28;20049;-67
2022/09/17 06:19:24;;;;;;;8.73;1.90;;;;;;;7.68;79.11;93689.41;5009829;28;20038;-65
2022/09/17 06:21:51;;;;;;;5.63;1.80;;;;;;;7.89;79.72;93689.25;5009436;28;20540;-65
2022/09/17 06:24:17;;;;;;;4.45;1.88;;;;;;;8.08;79.35;93698.81;5008577;28;20054;-65
2022/09/17 06:26:44;;;;;;;4.88;2.10;;;;;;;8.11;79.32;93700.75;5010391;28;20418;-65
2022/09/17 06:29:13;;;;;;;4.70;1.70;;;;;;;7.89;79.29;93697.44;5010191;28;20045;-65
2022/09/17 06:31:43;;;;;;;7.22;1.90;;;;;;;7.80;79.32;93699.84;5009851;28;20053;-65
2022/09/17 06:34:11;;;;;;;5.10;1.92;;;;;;;7.39;80.07;93703.28;5003242;28;20512;-65
2022/09/17 06:36:37;;;;;;;6.95;1.98;;;;;;;7.80;79.45;93708.03;5009808;28;20052;-66
2022/09/17 06:39:04;;;;;;;5.90;2.10;;;;;;;8.02;78.47;93707.88;5009701;28;20041;-68
2022/09/17 06:41:32;;;;;;;4.80;1.80;;;;;;;7.64;80.16;93713.25;5009890;28;20046;-65
2022/09/17 06:43:58;;;;;;;5.68;2.17;;;;;;;7.48;80.84;93711.00;5010095;28;20050;-67
2022/09/17 06:46:26;;;;;;;4.65;2.17;;;;;;;7.63;80.08;93717.16;5009384;28;20113;-69
2022/09/17 06:48:52;;;;;;;5.22;1.80;;;;;;;7.85;79.28;93731.41;5009830;28;20392;-66
2022/09/17 06:51:21;;;;;;;4.28;1.92;;;;;;;7.27;80.78;93729.09;5024444;28;20054;-66
2022/09/17 06:53:48;;;;;;;5.57;2.20;;;;;;;7.29;81.05;93728.69;5009743;28;20042;-63
2022/09/17 06:56:14;;;;;;;5.65;2.20;;;;;;;7.34;81.58;93723.56;5009541;28;20218;-65
2022/09/17 06:58:42;;;;;;;6.32;2.10;;;;;;;7.44;81.86;93734.81;5009637;28;20512;-64
2022/09/17 07:01:10;;;;;;;5.38;2.03;;;;;;;7.45;81.70;93723.50;5009458;28;20099;-63
2022/09/17 07:03:37;;;;;;;5.97;2.08;;;;;;;7.31;83.46;93727.09;5009367;28;20046;-63
2022/09/17 07:06:11;;;;;;;4.60;1.93;;;;;;;7.88;80.65;93730.63;5008985;28;20054;-63
2022/09/17 07:08:38;;;;;;;5.82;1.90;;;;;;;8.16;79.10;93719.44;5009434;28;20054;-66
2022/09/17 07:11:05;;;;;;;5.03;2.30;;;;;;;8.36;77.38;93721.59;5009303;28;20049;-64
2022/09/17 07:13:33;;;;;;;3.85;1.85;;;;;;;8.15;78.19;93730.78;5009611;28;20042;-64
2022/09/17 07:16:02;;;;;;;5.18;1.90;;;;;;;8.48;77.54;93725.81;5009856;28;20050;-65
2022/09/17 07:18:29;;;;;;;7.10;1.97;;;;;;;8.12;77.76;93729.63;5008939;28;20615;-67
2022/09/17 07:20:58;;;;;;;6.07;1.77;;;;;;;8.60;75.30;93717.84;5007711;28;20073;-66
2022/09/17 07:23:27;;;;;;;5.03;1.90;;;;;;;9.38;72.70;93718.06;5008961;28;20046;-67
2022/09/17 07:25:55;;;;;;;5.20;1.67;;;;;;;8.95;73.65;93720.56;5007665;28;20491;-65
2022/09/17 07:28:22;;;;;;;3.80;1.92;;;;;;;9.35;72.96;93729.84;5009102;28;20050;-65
2022/09/17 07:30:50;;;;;;;4.57;1.43;;;;;;;8.80;74.54;93739.13;5009434;28;20069;-65
2022/09/17 07:33:22;;;;;;;3.00;1.25;;;;;;;8.52;75.30;93730.06;5009544;28;20046;-68
2022/09/17 07:36:00;;;;;;;4.63;1.60;;;;;;;8.74;73.14;93738.03;5011986;28;20095;-65
2022/09/17 07:38:28;;;;;;;4.65;1.80;;;;;;;9.25;72.94;93740.94;5012877;28;20096;-66
2022/09/17 07:41:03;;;;;;;4.78;1.73;;;;;;;9.69;70.91;93748.16;5012855;28;20064;-68
2022/09/17 07:43:32;;;;;;;4.73;1.80;;;;;;;10.06;69.01;93748.38;5012269;28;21594;-66
2022/09/17 07:46:01;;;;;;;4.82;1.92;;;;;;;10.71;66.55;93746.13;5012516;28;20507;-66
2022/09/17 07:48:29;;;;;;;3.60;1.60;;;;;;;9.84;68.94;93745.19;5012254;28;20053;-64
2022/09/17 07:50:56;;;;;;;4.47;1.50;;;;;;;9.76;68.00;93761.00;5011707;28;20426;-65
2022/09/17 07:53:23;;;;;;;8.20;2.35;;;;;;;9.20;70.03;93756.63;5012717;28;20099;-64
2022/09/17 07:55:55;;;;;;;4.80;1.60;;;;;;;9.39;68.99;93757.94;5012055;28;20498;-64
2022/09/17 07:58:22;;;;;;;4.82;1.50;;;;;;;9.67;68.55;93761.47;5012113;28;20095;-64
2022/09/17 08:00:49;;;;;;;7.50;1.52;;;;;;;10.34;65.60;93755.38;5012531;28;20058;-66
2022/09/17 08:03:16;;;;;;;5.93;1.52;;;;;;;10.69;63.89;93756.75;5011653;28;20054;-65
2022/09/17 08:05:43;;;;;;;6.20;1.70;;;;;;;10.47;64.69;93753.59;5012041;28;20360;-64
2022/09/17 08:08:09;;;;;;;4.13;1.77;;;;;;;11.09;61.32;93754.03;5012353;28;20042;-66
2022/09/17 08:10:36;;;;;;;4.88;1.70;;;;;;;11.03;61.61;93749.44;5012471;28;20115;-65
2022/09/17 08:13:03;;;;;;;4.30;1.45;;;;;;;10.25;64.60;93753.16;5013865;28;20095;-65
2022/09/17 08:15:29;;;;;;;3.08;1.13;;;;;;;10.18;64.24;93756.81;5012602;28;20045;-64
2022/09/17 08:17:56;;;;;;;5.85;1.60;;;;;;;10.41;63.48;93760.00;5012104;28;20483;-63
2022/09/17 08:20:25;;;;;;;4.00;1.37;;;;;;;10.75;62.71;93757.03;5012201;28;20054;-66
2022/09/17 08:23:00;;;;;;;4.20;1.35;;;;;;;11.52;61.24;93750.38;5012419;28;20037;-65
2022/09/17 08:25:27;;;;;;;3.72;1.50;;;;;;;12.99;56.54;93762.59;5001825;28;20333;-65
2022/09/17 08:27:55;;;;;;;4.90;1.52;;;;;;;14.56;52.30;93753.63;5012378;28;20046;-62
2022/09/17 08:30:22;;;;;;;4.45;1.10;;;;;;;16.62;45.77;93753.97;5012065;28;20042;-66
2022/09/17 08:32:49;;;;;;;3.33;1.30;;;;;;;16.43;46.08;93744.06;5012209;28;20050;-63
2022/09/17 08:35:16;;;;;;;4.60;1.50;;;;;;;18.21;44.68;93740.28;5012143;28;20045;-63
2022/09/17 08:37:43;;;;;;;3.53;1.25;;;;;;;19.25;39.67;93737.19;5012090;28;20393;-65
2022/09/17 08:40:19;;;;;;;3.70;0.98;;;;;;;18.54;41.14;93745.06;5010664;28;20040;-63
2022/09/17 08:43:01;;;;;;;3.55;1.42;;;;;;;18.29;40.20;93738.72;5011286;28;20034;-66
2022/09/17 08:45:28;;;;;;;3.80;0.90;;;;;;;20.55;36.79;93738.13;5010321;28;20798;-67
2022/09/17 08:48:03;;;;;;;3.65;1.00;;;;;;;19.98;37.26;93734.97;5012461;28;20057;-67
2022/09/17 08:50:33;;;;;;;2.92;1.15;;;;;;;17.85;42.12;93741.97;5010851;28;21753;-65
2022/09/17 08:53:06;;;;;;;4.47;1.02;;;;;;;17.92;42.21;93733.28;5005341;28;20100;-67
2022/09/17 08:55:44;;;;;;;2.88;1.15;;;;;;;16.91;43.13;93748.03;5008498;28;20868;-64
2022/09/17 08:58:35;;;;;;;3.37;0.90;;;;;;;13.57;51.22;93753.53;5011595;28;20041;-65
2022/09/17 09:01:05;;;;;;;3.22;0.98;;;;;;;14.11;51.03;93754.69;5012092;28;20049;-66
2022/09/17 09:03:49;;;;;;;3.90;1.10;;;;;;;13.49;52.31;93754.97;5011024;28;21871;-66
2022/09/17 09:06:18;;;;;;;2.72;1.10;;;;;;;14.43;50.90;93736.28;5011662;28;20082;-65
2022/09/17 09:08:52;;;;;;;3.47;1.20;;;;;;;15.85;47.93;93737.25;5011540;28;20046;-65
2022/09/17 09:11:26;;;;;;;2.93;1.20;;;;;;;17.11;43.55;93749.59;5011675;28;20384;-65
2022/09/17 09:14:00;;;;;;;3.83;1.40;;;;;;;16.14;45.67;93754.28;5011730;28;20125;-68
2022/09/17 09:16:31;;;;;;;3.05;0.90;;;;;;;14.01;49.40;93744.75;5011326;28;20048;-65
2022/09/17 09:19:09;;;;;;;2.00;0.75;;;;;;;13.74;51.31;93757.75;5011909;28;20099;-65
2022/09/17 09:21:46;;;;;;;2.97;0.90;;;;;;;14.22;50.86;93749.56;5010827;28;20040;-74
2022/09/17 09:24:24;;;;;;;3.03;0.87;;;;;;;13.52;52.17;93749.34;5009975;28;20037;-65
2022/09/17 09:27:00;;;;;;;3.22;1.17;;;;;;;12.53;55.03;93756.31;5011267;28;20056;-66
2022/09/17 09:29:39;;;;;;;2.78;0.80;;;;;;;13.30;53.75;93751.94;5011275;28;20092;-66
2022/09/17 09:32:42;;;;;;;2.60;0.80;;;;;;;12.29;55.58;93753.75;5011134;28;20046;-66
2022/09/17 09:35:19;;;;;;;2.92;0.80;;;;;;;12.62;56.90;93769.50;5010774;28;20046;-65
2022/09/17 09:37:55;;;;;;;3.27;0.80;;;;;;;11.88;60.66;93766.09;5011185;28;20041;-65
2022/09/17 09:40:34;;;;;;;3.42;0.90;;;;;;;11.47;63.75;93778.38;5011035;28;20042;-65
2022/09/17 09:43:13;;;;;;;4.05;1.40;;;;;;;11.41;65.88;93771.84;5011115;28;20056;-65
2022/09/17 09:45:55;;;;;;;2.90;1.10;;;;;;;11.92;62.94;93783.31;5010065;28;20290;-67
2022/09/17 09:48:25;;;;;;;2.45;0.80;;;;;;;11.96;63.98;93783.22;5010558;28;20372;-66
2022/09/17 09:51:06;;;;;;;2.33;1.00;;;;;;;11.62;66.06;93780.81;5011050;28;20111;-66
2022/09/17 09:53:32;;;;;;;3.85;0.95;;;;;;;11.95;66.41;93792.69;5010543;28;22626;-64
2022/09/17 09:56:50;;;;;;;3.95;1.23;;;;;;;11.48;66.87;93799.16;5010913;28;20045;-65
2022/09/17 09:59:18;;;;;;;2.65;1.42;;;;;;;10.67;71.07;93796.78;4976340;28;21481;-65
2022/09/17 10:01:45;;;;;;;3.70;1.20;;;;;;;11.03;68.00;93794.16;5011001;28;20054;-64
2022/09/17 10:04:19;;;;;;;3.17;1.50;;;;;;;10.89;71.16;93808.16;5010039;28;20688;-65
2022/09/17 10:07:07;;;;;;;2.50;0.95;;;;;;;10.91;69.41;93803.03;4997068;28;20107;-64
2022/09/17 10:09:37;;;;;;;3.30;1.00;;;;;;;10.95;70.51;93799.00;5009842;28;20841;-68
2022/09/17 10:12:07;;;;;;;3.00;0.80;;;;;;;11.34;68.73;93802.19;4996323;28;20038;-65
2022/09/17 10:14:35;;;;;;;1.95;0.80;;;;;;;11.46;67.75;93804.28;5009329;28;20048;-65
2022/09/17 10:17:21;;;;;;;1.97;0.70;;;;;;;12.16;67.33;93794.94;5010601;28;20382;-66
2022/09/17 10:20:13;;;;;;;2.78;0.60;;;;;;;12.97;62.29;93795.31;5009549;28;20081;-65
2022/09/17 10:22:45;;;;;;;1.88;0.70;;;;;;;12.27;65.25;93802.16;5002275;28;20557;-66
2022/09/17 10:25:34;;;;;;;2.00;0.60;;;;;;;11.79;66.38;93794.19;5010515;28;20054;-65
2022/09/17 10:28:05;;;;;;;2.75;0.68;;;;;;;12.57;63.57;93798.28;5010678;28;20487;-65
2022/09/17 10:30:31;;;;;;;2.00;0.57;;;;;;;13.59;59.02;93784.97;5009210;28;20147;-66
2022/09/17 10:33:21;;;;;;;1.67;0.60;;;;;;;14.08;56.24;93781.16;5009019;28;20046;-64
2022/09/17 10:36:14;;;;;;;1.50;0.45;;;;;;;15.54;52.46;93785.00;5007454;28;20461;-66
2022/09/17 10:38:45;;;;;;;1.80;0.40;;;;;;;16.78;51.74;93783.38;5007473;28;20860;-65
2022/09/17 10:41:15;;;;;;;1.77;0.50;;;;;;;17.42;48.79;93791.00;5009965;28;20038;-65
2022/09/17 10:43:42;;;;;;;1.90;0.60;;;;;;;17.22;48.97;93788.69;5010459;28;20075;-71
2022/09/17 10:46:21;;;;;;;2.05;0.50;;;;;;;17.60;47.52;93781.91;5008199;28;20042;-65
2022/09/17 10:49:07;;;;;;;2.22;0.40;;;;;;;18.47;45.03;93782.31;5010136;28;20100;-65
2022/09/17 10:51:33;;;;;;;2.35;0.60;;;;;;;15.07;54.62;93786.66;5009771;28;21678;-65
2022/09/17 10:54:13;;;;;;;2.00;0.68;;;;;;;17.74;46.81;93789.59;5010299;28;20372;-65
2022/09/17 10:56:48;;;;;;;2.23;0.73;;;;;;;17.49;45.62;93799.03;5009398;28;20093;-65
2022/09/17 10:59:21;;;;;;;3.63;0.50;;;;;;;15.73;48.88;93789.44;5009360;28;20513;-66
2022/09/17 11:02:14;;;;;;;2.30;0.60;;;;;;;15.88;48.73;93788.94;5009996;28;20541;-66
2022/09/17 11:05:06;;;;;;;2.78;1.10;;;;;;;17.41;45.31;93785.94;5009116;28;20616;-64
2022/09/17 11:07:54;;;;;;;2.10;0.70;;;;;;;17.02;44.96;93785.63;5009582;28;21674;-65
2022/09/17 11:10:32;;;;;;;3.60;0.60;;;;;;;15.05;49.13;93783.56;5016353;28;20058;-64
2022/09/17 11:13:31;;;;;;;2.47;0.57;;;;;;;17.01;46.75;93784.84;5016229;28;20060;-64
2022/09/17 11:16:16;;;;;;;2.78;0.70;;;;;;;15.43;49.40;93795.66;4991798;28;21837;-64
2022/09/17 11:19:07;;;;;;;1.90;0.50;;;;;;;16.03;46.87;93792.69;5015484;28;20050;-65
2022/09/17 11:22:01;;;;;;;1.83;0.63;;;;;;;15.24;48.94;93789.25;5012145;28;20970;-67
2022/09/17 11:24:47;;;;;;;2.10;0.70;;;;;;;16.21;46.08;93788.47;5012869;28;20072;-64
2022/09/17 11:27:36;;;;;;;3.42;1.40;;;;;;;16.85;45.55;93797.00;5016107;28;20514;-66
2022/09/17 11:30:13;;;;;;;4.03;0.90;;;;;;;14.27;50.94;93797.94;5004419;28;20058;-63
2022/09/17 11:32:53;;;;;;;2.55;0.77;;;;;;;15.85;47.61;93782.28;5016563;28;20046;-65
2022/09/17 11:35:29;;;;;;;2.80;0.80;;;;;;;15.30;48.58;93788.22;5012845;28;20111;-65
2022/09/17 11:38:00;;;;;;;3.40;0.80;;;;;;;14.54;51.45;93798.22;5016047;28;20056;-65
2022/09/17 11:40:45;;;;;;;2.95;0.63;;;;;;;14.24;52.30;93798.81;5015910;28;20038;-65
2022/09/17 11:43:18;;;;;;;3.35;1.00;;;;;;;14.07;50.74;93796.16;5015850;28;20042;-65
2022/09/17 11:45:56;;;;;;;3.17;0.80;;;;;;;13.89;51.94;93796.72;5016029;28;20048;-65
2022/09/17 11:48:32;;;;;;;3.65;1.08;;;;;;;13.51;55.54;93796.66;5016036;28;20087;-68
2022/09/17 11:51:34;;;;;;;3.17;1.10;;;;;;;13.55;54.36;93798.09;5015893;28;20088;-69
2022/09/17 11:54:04;;;;;;;3.08;1.05;;;;;;;13.00;54.57;93802.72;5015201;28;21682;-65
2022/09/17 11:56:41;;;;;;;3.55;1.02;;;;;;;13.37;53.41;93790.31;5013809;28;20634;-65
2022/09/17 11:59:14;;;;;;;3.95;0.98;;;;;;;12.64;55.99;93798.13;5015424;28;20446;-68
2022/09/17 12:02:13;;;;;;;3.38;1.00;;;;;;;13.00;54.49;93799.97;5016244;28;20403;-67
2022/09/17 12:04:46;;;;;;;3.17;1.00;;;;;;;12.95;55.78;93803.25;5009606;28;20431;-66